sensor_id;sensor_type;location;lat;lon;timestamp;pressure;altitude;pressure_sealevel;temperature;humidity
16793;BME280;8513;42.662;23.350;2022-08-05T00:01:19;95055.63;;;21.91;52.13
16793;BME280;8513;42.662;23.350;2022-08-05T00:03:45;95048.25;;;21.86;52.20
16793;BME280;8513;42.662;23.350;2022-08-05T00:06:11;95052.34;;;21.89;51.97
16793;BME280;8513;42.662;23.350;2022-08-05T00:08:37;95051.97;;;21.85;51.78
16793;BME280;8513;42.662;23.350;2022-08-05T00:11:11;95046.13;;;21.95;52.09
16793;BME280;8513;42.662;23.350;2022-08-05T00:13:39;95043.13;;;21.85;52.54
16793;BME280;8513;42.662;23.350;2022-08-05T00:16:06;95035.59;;;21.75;53.09
16793;BME280;8513;42.662;23.350;2022-08-05T00:18:32;95041.84;;;21.69;52.73
16793;BME280;8513;42.662;23.350;2022-08-05T00:20:57;95038.28;;;21.75;52.84
16793;BME280;8513;42.662;23.350;2022-08-05T00:23:23;95027.09;;;22.03;52.02
16793;BME280;8513;42.662;23.350;2022-08-05T00:25:49;95028.66;;;22.11;51.41
16793;BME280;8513;42.662;23.350;2022-08-05T00:28:15;95031.69;;;21.96;52.03
16793;BME280;8513;42.662;23.350;2022-08-05T00:30:41;95031.59;;;21.66;53.32
16793;BME280;8513;42.662;23.350;2022-08-05T00:33:06;95034.13;;;21.79;52.72
16793;BME280;8513;42.662;23.350;2022-08-05T00:35:32;95028.47;;;21.69;51.72
16793;BME280;8513;42.662;23.350;2022-08-05T00:37:57;95031.41;;;21.61;52.03
16793;BME280;8513;42.662;23.350;2022-08-05T00:40:24;95028.91;;;21.41;52.92
16793;BME280;8513;42.662;23.350;2022-08-05T00:42:50;95027.22;;;21.46;52.73
16793;BME280;8513;42.662;23.350;2022-08-05T00:45:16;95027.59;;;21.50;52.87
16793;BME280;8513;42.662;23.350;2022-08-05T00:47:41;95036.72;;;21.42;53.50
16793;BME280;8513;42.662;23.350;2022-08-05T00:50:08;95039.41;;;21.35;53.92
16793;BME280;8513;42.662;23.350;2022-08-05T00:52:34;95052.03;;;21.28;54.25
16793;BME280;8513;42.662;23.350;2022-08-05T00:54:59;95034.72;;;21.31;54.22
16793;BME280;8513;42.662;23.350;2022-08-05T00:57:25;95032.88;;;21.31;53.78
16793;BME280;8513;42.662;23.350;2022-08-05T00:59:50;95027.53;;;21.31;53.68
16793;BME280;8513;42.662;23.350;2022-08-05T01:02:16;95037.69;;;21.23;53.75
16793;BME280;8513;42.662;23.350;2022-08-05T01:04:41;95032.63;;;21.33;53.07
16793;BME280;8513;42.662;23.350;2022-08-05T01:07:07;95035.50;;;21.38;53.17
16793;BME280;8513;42.662;23.350;2022-08-05T01:09:32;95031.88;;;21.26;53.03
16793;BME280;8513;42.662;23.350;2022-08-05T01:12:02;95019.25;;;21.08;52.58
16793;BME280;8513;42.662;23.350;2022-08-05T01:14:47;95034.25;;;21.09;52.88
16793;BME280;8513;42.662;23.350;2022-08-05T01:17:37;95043.94;;;21.10;53.01
16793;BME280;8513;42.662;23.350;2022-08-05T01:31:11;95040.31;;;20.98;52.36
16793;BME280;8513;42.662;23.350;2022-08-05T01:33:47;95033.34;;;20.90;52.49
16793;BME280;8513;42.662;23.350;2022-08-05T01:36:16;95037.63;;;20.98;52.45
16793;BME280;8513;42.662;23.350;2022-08-05T01:38:44;95036.22;;;20.95;52.56
16793;BME280;8513;42.662;23.350;2022-08-05T01:41:13;95046.16;;;20.81;53.01
16793;BME280;8513;42.662;23.350;2022-08-05T01:43:41;95037.94;;;20.83;53.02
16793;BME280;8513;42.662;23.350;2022-08-05T01:46:08;95034.75;;;20.67;53.55
16793;BME280;8513;42.662;23.350;2022-08-05T01:48:34;95035.38;;;20.63;53.79
16793;BME280;8513;42.662;23.350;2022-08-05T01:51:02;95038.22;;;20.68;53.67
16793;BME280;8513;42.662;23.350;2022-08-05T01:53:29;95045.06;;;20.57;53.93
16793;BME280;8513;42.662;23.350;2022-08-05T01:55:59;95045.03;;;20.64;53.64
16793;BME280;8513;42.662;23.350;2022-08-05T01:58:26;95042.88;;;20.79;53.10
16793;BME280;8513;42.662;23.350;2022-08-05T02:00:55;95041.44;;;20.77;52.85
16793;BME280;8513;42.662;23.350;2022-08-05T02:05:52;95043.75;;;20.73;53.45
16793;BME280;8513;42.662;23.350;2022-08-05T02:08:18;95034.59;;;20.56;53.84
16793;BME280;8513;42.662;23.350;2022-08-05T02:10:48;95034.59;;;20.56;54.03
16793;BME280;8513;42.662;23.350;2022-08-05T02:13:27;95039.69;;;20.64;53.67
16793;BME280;8513;42.662;23.350;2022-08-05T02:16:03;95048.78;;;20.56;53.48
16793;BME280;8513;42.662;23.350;2022-08-05T02:18:34;95036.84;;;20.52;52.67
16793;BME280;8513;42.662;23.350;2022-08-05T02:21:32;95043.84;;;20.53;50.99
16793;BME280;8513;42.662;23.350;2022-08-05T02:24:04;95039.31;;;20.47;52.06
16793;BME280;8513;42.662;23.350;2022-08-05T02:26:45;95040.19;;;20.41;52.80
16793;BME280;8513;42.662;23.350;2022-08-05T02:29:15;95034.66;;;20.36;52.23
16793;BME280;8513;42.662;23.350;2022-08-05T02:31:43;95032.66;;;20.24;52.73
16793;BME280;8513;42.662;23.350;2022-08-05T02:34:09;95029.78;;;20.19;52.45
16793;BME280;8513;42.662;23.350;2022-08-05T02:36:41;95032.84;;;20.30;52.14
16793;BME280;8513;42.662;23.350;2022-08-05T02:39:08;95026.69;;;20.22;53.69
16793;BME280;8513;42.662;23.350;2022-08-05T02:41:36;95034.03;;;20.34;53.82
16793;BME280;8513;42.662;23.350;2022-08-05T02:44:05;95030.78;;;20.25;54.35
16793;BME280;8513;42.662;23.350;2022-08-05T02:46:33;95019.06;;;20.26;54.86
16793;BME280;8513;42.662;23.350;2022-08-05T02:48:59;95032.84;;;20.23;55.66
16793;BME280;8513;42.662;23.350;2022-08-05T02:51:26;95026.31;;;20.12;55.64
16793;BME280;8513;42.662;23.350;2022-08-05T02:53:52;95025.94;;;20.09;55.15
16793;BME280;8513;42.662;23.350;2022-08-05T02:56:18;95030.69;;;20.00;55.57
16793;BME280;8513;42.662;23.350;2022-08-05T02:58:45;95025.94;;;20.09;54.63
16793;BME280;8513;42.662;23.350;2022-08-05T03:01:17;95026.78;;;20.02;54.51
16793;BME280;8513;42.662;23.350;2022-08-05T03:03:48;95025.97;;;19.95;54.47
16793;BME280;8513;42.662;23.350;2022-08-05T03:06:15;95025.53;;;19.98;54.69
16793;BME280;8513;42.662;23.350;2022-08-05T03:08:41;95028.25;;;19.85;55.06
16793;BME280;8513;42.662;23.350;2022-08-05T03:11:24;95034.63;;;19.77;55.10
16793;BME280;8513;42.662;23.350;2022-08-05T03:13:50;95033.41;;;19.73;55.54
16793;BME280;8513;42.662;23.350;2022-08-05T03:16:16;95035.66;;;19.76;55.79
16793;BME280;8513;42.662;23.350;2022-08-05T03:18:41;95037.28;;;19.77;55.63
16793;BME280;8513;42.662;23.350;2022-08-05T03:21:07;95039.97;;;19.71;55.53
16793;BME280;8513;42.662;23.350;2022-08-05T03:23:34;95040.16;;;19.69;55.29
16793;BME280;8513;42.662;23.350;2022-08-05T03:26:01;95044.06;;;19.73;55.21
16793;BME280;8513;42.662;23.350;2022-08-05T03:28:28;95035.66;;;19.70;55.20
16793;BME280;8513;42.662;23.350;2022-08-05T03:30:55;95028.84;;;19.80;55.05
16793;BME280;8513;42.662;23.350;2022-08-05T03:33:20;95031.34;;;19.75;54.93
16793;BME280;8513;42.662;23.350;2022-08-05T03:35:46;95040.59;;;19.73;55.02
16793;BME280;8513;42.662;23.350;2022-08-05T03:38:13;95036.66;;;19.82;54.62
16793;BME280;8513;42.662;23.350;2022-08-05T03:40:43;95031.13;;;19.83;54.64
16793;BME280;8513;42.662;23.350;2022-08-05T03:43:09;95033.38;;;19.87;54.57
16793;BME280;8513;42.662;23.350;2022-08-05T03:45:34;95038.03;;;20.04;53.72
16793;BME280;8513;42.662;23.350;2022-08-05T03:48:00;95028.63;;;19.95;53.52
16793;BME280;8513;42.662;23.350;2022-08-05T03:50:31;95042.78;;;20.02;54.22
16793;BME280;8513;42.662;23.350;2022-08-05T03:53:04;95040.34;;;19.94;54.75
16793;BME280;8513;42.662;23.350;2022-08-05T03:55:34;95050.84;;;19.76;56.62
16793;BME280;8513;42.662;23.350;2022-08-05T03:58:03;95041.19;;;19.81;56.71
16793;BME280;8513;42.662;23.350;2022-08-05T04:00:29;95039.94;;;19.91;56.54
16793;BME280;8513;42.662;23.350;2022-08-05T04:02:57;95037.03;;;19.99;56.42
16793;BME280;8513;42.662;23.350;2022-08-05T04:05:26;95030.91;;;19.92;56.99
16793;BME280;8513;42.662;23.350;2022-08-05T04:07:51;95040.53;;;19.93;56.81
16793;BME280;8513;42.662;23.350;2022-08-05T04:10:17;95044.50;;;19.17;58.46
16793;BME280;8513;42.662;23.350;2022-08-05T04:12:43;95043.47;;;19.25;57.97
16793;BME280;8513;42.662;23.350;2022-08-05T04:15:09;95038.75;;;19.33;57.87
16793;BME280;8513;42.662;23.350;2022-08-05T04:17:36;95036.28;;;18.99;58.79
16793;BME280;8513;42.662;23.350;2022-08-05T04:20:02;95042.00;;;19.02;58.51
16793;BME280;8513;42.662;23.350;2022-08-05T04:22:28;95033.41;;;19.40;57.70
16793;BME280;8513;42.662;23.350;2022-08-05T04:24:53;95036.69;;;19.55;57.25
16793;BME280;8513;42.662;23.350;2022-08-05T04:27:19;95039.13;;;19.77;56.81
16793;BME280;8513;42.662;23.350;2022-08-05T04:29:44;95029.94;;;19.66;57.25
16793;BME280;8513;42.662;23.350;2022-08-05T04:32:10;95035.84;;;19.75;56.68
16793;BME280;8513;42.662;23.350;2022-08-05T04:34:35;95038.31;;;19.43;57.50
16793;BME280;8513;42.662;23.350;2022-08-05T04:37:02;95033.16;;;19.61;56.80
16793;BME280;8513;42.662;23.350;2022-08-05T04:39:27;95033.78;;;19.64;56.31
16793;BME280;8513;42.662;23.350;2022-08-05T04:41:53;95033.16;;;19.61;56.29
16793;BME280;8513;42.662;23.350;2022-08-05T04:44:18;95024.09;;;19.96;55.47
16793;BME280;8513;42.662;23.350;2022-08-05T04:46:44;95030.88;;;20.05;55.31
16793;BME280;8513;42.662;23.350;2022-08-05T04:49:09;95033.91;;;20.15;54.86
16793;BME280;8513;42.662;23.350;2022-08-05T04:51:35;95031.59;;;20.32;54.49
16793;BME280;8513;42.662;23.350;2022-08-05T04:54:00;95035.56;;;20.16;55.60
16793;BME280;8513;42.662;23.350;2022-08-05T04:56:26;95031.22;;;20.22;54.86
16793;BME280;8513;42.662;23.350;2022-08-05T04:58:51;95034.03;;;20.34;54.75
16793;BME280;8513;42.662;23.350;2022-08-05T05:01:17;95042.22;;;20.39;54.26
16793;BME280;8513;42.662;23.350;2022-08-05T05:03:42;95040.41;;;20.33;54.03
16793;BME280;8513;42.662;23.350;2022-08-05T05:06:12;95028.72;;;20.27;53.95
16793;BME280;8513;42.662;23.350;2022-08-05T05:08:38;95034.41;;;20.44;53.51
16793;BME280;8513;42.662;23.350;2022-08-05T05:11:04;95033.97;;;20.47;53.14
16793;BME280;8513;42.662;23.350;2022-08-05T05:13:30;95036.06;;;20.45;53.22
16793;BME280;8513;42.662;23.350;2022-08-05T05:15:55;95023.47;;;20.52;53.21
16793;BME280;8513;42.662;23.350;2022-08-05T05:18:21;95032.84;;;20.75;52.67
16793;BME280;8513;42.662;23.350;2022-08-05T05:20:46;95034.53;;;20.69;52.65
16793;BME280;8513;42.662;23.350;2022-08-05T05:23:12;95037.34;;;20.74;52.81
16793;BME280;8513;42.662;23.350;2022-08-05T05:25:42;95030.63;;;20.65;52.51
16793;BME280;8513;42.662;23.350;2022-08-05T05:28:09;95033.63;;;20.82;52.79
16793;BME280;8513;42.662;23.350;2022-08-05T05:30:37;95031.94;;;20.87;52.39
16793;BME280;8513;42.662;23.350;2022-08-05T05:33:04;95026.66;;;20.74;52.98
16793;BME280;8513;42.662;23.350;2022-08-05T05:35:31;95024.09;;;20.92;52.19
16793;BME280;8513;42.662;23.350;2022-08-05T05:37:58;95022.97;;;21.07;51.88
16793;BME280;8513;42.662;23.350;2022-08-05T05:40:26;95021.19;;;21.26;51.52
16793;BME280;8513;42.662;23.350;2022-08-05T05:42:52;95020.47;;;21.12;51.69
16793;BME280;8513;42.662;23.350;2022-08-05T05:45:18;95028.13;;;21.33;51.10
16793;BME280;8513;42.662;23.350;2022-08-05T05:47:44;95030.06;;;21.20;51.50
16793;BME280;8513;42.662;23.350;2022-08-05T05:50:14;95036.84;;;21.22;51.97
16793;BME280;8513;42.662;23.350;2022-08-05T05:52:41;95028.56;;;21.30;52.44
16793;BME280;8513;42.662;23.350;2022-08-05T05:55:09;95031.06;;;21.25;51.82
16793;BME280;8513;42.662;23.350;2022-08-05T05:57:35;95032.19;;;21.43;52.41
16793;BME280;8513;42.662;23.350;2022-08-05T06:00:02;95039.56;;;21.47;51.74
16793;BME280;8513;42.662;23.350;2022-08-05T06:02:28;95033.28;;;21.60;50.57
16793;BME280;8513;42.662;23.350;2022-08-05T06:04:54;95029.88;;;21.46;51.08
16793;BME280;8513;42.662;23.350;2022-08-05T06:07:19;95031.97;;;21.44;51.46
16793;BME280;8513;42.662;23.350;2022-08-05T06:09:44;95034.84;;;21.68;50.21
16793;BME280;8513;42.662;23.350;2022-08-05T06:12:10;95036.50;;;21.44;50.84
16793;BME280;8513;42.662;23.350;2022-08-05T06:14:35;95033.03;;;21.62;51.05
16793;BME280;8513;42.662;23.350;2022-08-05T06:17:01;95038.28;;;21.75;51.23
16793;BME280;8513;42.662;23.350;2022-08-05T06:19:27;95041.34;;;21.78;51.25
16793;BME280;8513;42.662;23.350;2022-08-05T06:21:52;95037.63;;;21.79;51.21
16793;BME280;8513;42.662;23.350;2022-08-05T06:24:18;95034.72;;;21.81;50.24
16793;BME280;8513;42.662;23.350;2022-08-05T06:26:44;95037.25;;;21.76;50.64
16793;BME280;8513;42.662;23.350;2022-08-05T06:29:09;95031.09;;;21.94;49.69
16793;BME280;8513;42.662;23.350;2022-08-05T06:31:36;95023.00;;;22.00;50.08
16793;BME280;8513;42.662;23.350;2022-08-05T06:34:01;95030.72;;;22.09;49.31
16793;BME280;8513;42.662;23.350;2022-08-05T06:36:27;95023.81;;;22.01;50.19
16793;BME280;8513;42.662;23.350;2022-08-05T06:38:52;95033.09;;;21.98;48.75
16793;BME280;8513;42.662;23.350;2022-08-05T06:41:19;95029.69;;;22.10;48.59
16793;BME280;8513;42.662;23.350;2022-08-05T06:43:45;95030.97;;;22.26;48.16
16793;BME280;8513;42.662;23.350;2022-08-05T06:46:11;95034.31;;;22.21;48.61
16793;BME280;8513;42.662;23.350;2022-08-05T06:48:36;95033.75;;;22.37;49.15
16793;BME280;8513;42.662;23.350;2022-08-05T06:51:06;95025.16;;;22.47;48.33
16793;BME280;8513;42.662;23.350;2022-08-05T06:53:32;95028.75;;;22.71;46.85
16793;BME280;8513;42.662;23.350;2022-08-05T06:55:59;95026.34;;;22.51;49.03
16793;BME280;8513;42.662;23.350;2022-08-05T06:58:26;95031.91;;;22.50;49.67
16793;BME280;8513;42.662;23.350;2022-08-05T07:00:51;95016.75;;;22.74;48.47
16793;BME280;8513;42.662;23.350;2022-08-05T07:03:17;95021.91;;;22.75;49.01
16793;BME280;8513;42.662;23.350;2022-08-05T07:05:43;95022.41;;;22.84;48.11
16793;BME280;8513;42.662;23.350;2022-08-05T07:08:09;95020.25;;;22.74;48.50
16793;BME280;8513;42.662;23.350;2022-08-05T07:10:34;95029.16;;;22.86;47.59
16793;BME280;8513;42.662;23.350;2022-08-05T07:13:00;95028.44;;;22.79;47.10
16793;BME280;8513;42.662;23.350;2022-08-05T07:15:44;95019.03;;;22.88;47.03
16793;BME280;8513;42.662;23.350;2022-08-05T07:18:28;95020.66;;;22.89;46.36
16793;BME280;8513;42.662;23.350;2022-08-05T07:20:53;95018.16;;;23.06;47.56
16793;BME280;8513;42.662;23.350;2022-08-05T07:23:18;95024.47;;;23.12;47.21
16793;BME280;8513;42.662;23.350;2022-08-05T07:25:44;95022.97;;;23.16;46.30
16793;BME280;8513;42.662;23.350;2022-08-05T07:28:09;95029.88;;;23.24;46.22
16793;BME280;8513;42.662;23.350;2022-08-05T07:30:36;95019.66;;;23.44;46.16
16793;BME280;8513;42.662;23.350;2022-08-05T07:33:04;95024.91;;;23.39;45.22
16793;BME280;8513;42.662;23.350;2022-08-05T07:35:30;95020.34;;;23.51;45.66
16793;BME280;8513;42.662;23.350;2022-08-05T07:37:55;95020.47;;;23.45;46.09
16793;BME280;8513;42.662;23.350;2022-08-05T07:40:21;95013.94;;;23.52;45.59
16793;BME280;8513;42.662;23.350;2022-08-05T07:42:47;95018.19;;;23.72;45.33
16793;BME280;8513;42.662;23.350;2022-08-05T07:45:12;95015.38;;;23.78;45.40
16793;BME280;8513;42.662;23.350;2022-08-05T07:47:38;95015.94;;;23.81;44.99
16793;BME280;8513;42.662;23.350;2022-08-05T07:50:04;95014.56;;;23.90;43.66
16793;BME280;8513;42.662;23.350;2022-08-05T07:52:29;95018.16;;;23.84;43.65
16793;BME280;8513;42.662;23.350;2022-08-05T07:54:55;95019.47;;;23.93;43.86
16793;BME280;8513;42.662;23.350;2022-08-05T07:57:21;95017.22;;;24.02;43.07
16793;BME280;8513;42.662;23.350;2022-08-05T07:59:47;95018.03;;;24.02;43.02
16793;BME280;8513;42.662;23.350;2022-08-05T08:02:12;95021.06;;;24.06;43.04
16793;BME280;8513;42.662;23.350;2022-08-05T08:04:38;95013.09;;;24.11;43.97
16793;BME280;8513;42.662;23.350;2022-08-05T08:07:04;95015.91;;;24.16;43.42
16793;BME280;8513;42.662;23.350;2022-08-05T08:09:29;95017.16;;;24.37;43.35
16793;BME280;8513;42.662;23.350;2022-08-05T08:11:55;95009.19;;;24.42;41.75
16793;BME280;8513;42.662;23.350;2022-08-05T08:14:20;95016.44;;;24.41;42.47
16793;BME280;8513;42.662;23.350;2022-08-05T08:16:46;95017.38;;;24.47;42.24
16793;BME280;8513;42.662;23.350;2022-08-05T08:19:11;95013.50;;;24.55;42.13
16793;BME280;8513;42.662;23.350;2022-08-05T08:21:36;95012.91;;;24.64;42.58
16793;BME280;8513;42.662;23.350;2022-08-05T08:24:02;95010.75;;;24.78;41.63
16793;BME280;8513;42.662;23.350;2022-08-05T08:26:28;95016.59;;;24.75;42.28
16793;BME280;8513;42.662;23.350;2022-08-05T08:28:53;95013.66;;;24.77;41.11
16793;BME280;8513;42.662;23.350;2022-08-05T08:31:18;95014.13;;;24.74;41.07
16793;BME280;8513;42.662;23.350;2022-08-05T08:33:44;95007.06;;;24.84;40.80
16793;BME280;8513;42.662;23.350;2022-08-05T08:36:10;94998.13;;;24.96;39.74
16793;BME280;8513;42.662;23.350;2022-08-05T08:38:35;95003.59;;;25.01;39.76
16793;BME280;8513;42.662;23.350;2022-08-05T08:41:04;95000.41;;;25.16;40.05
16793;BME280;8513;42.662;23.350;2022-08-05T08:43:32;95007.00;;;25.42;38.91
16793;BME280;8513;42.662;23.350;2022-08-05T08:46:00;95005.78;;;25.49;38.90
16793;BME280;8513;42.662;23.350;2022-08-05T08:48:29;95000.66;;;25.48;39.38
16793;BME280;8513;42.662;23.350;2022-08-05T08:50:55;95003.31;;;25.65;39.30
16793;BME280;8513;42.662;23.350;2022-08-05T08:53:23;94998.34;;;25.73;38.78
16793;BME280;8513;42.662;23.350;2022-08-05T08:55:49;95005.09;;;25.76;37.44
16793;BME280;8513;42.662;23.350;2022-08-05T08:58:15;95003.28;;;25.82;38.16
16793;BME280;8513;42.662;23.350;2022-08-05T09:00:41;95003.66;;;25.85;38.05
16793;BME280;8513;42.662;23.350;2022-08-05T09:03:08;94996.13;;;25.87;37.60
16793;BME280;8513;42.662;23.350;2022-08-05T09:05:35;94997.03;;;25.93;37.25
16793;BME280;8513;42.662;23.350;2022-08-05T09:08:01;94991.97;;;25.96;36.00
16793;BME280;8513;42.662;23.350;2022-08-05T09:10:27;94986.72;;;26.07;35.72
16793;BME280;8513;42.662;23.350;2022-08-05T09:12:52;94984.84;;;26.07;35.35
16793;BME280;8513;42.662;23.350;2022-08-05T09:15:18;94981.88;;;26.09;35.11
16793;BME280;8513;42.662;23.350;2022-08-05T09:17:44;94973.31;;;26.12;33.68
16793;BME280;8513;42.662;23.350;2022-08-05T09:20:10;94968.81;;;26.17;34.83
16793;BME280;8513;42.662;23.350;2022-08-05T09:23:08;94965.66;;;26.26;34.50
16793;BME280;8513;42.662;23.350;2022-08-05T09:25:40;94975.31;;;26.22;35.15
16793;BME280;8513;42.662;23.350;2022-08-05T09:28:21;94961.31;;;26.25;33.92
16793;BME280;8513;42.662;23.350;2022-08-05T09:31:10;94965.59;;;26.43;32.75
16793;BME280;8513;42.662;23.350;2022-08-05T09:33:54;94966.66;;;26.42;33.63
16793;BME280;8513;42.662;23.350;2022-08-05T09:36:20;94953.63;;;26.55;32.70
16793;BME280;8513;42.662;23.350;2022-08-05T09:39:00;94958.72;;;26.79;32.73
16793;BME280;8513;42.662;23.350;2022-08-05T09:41:26;94952.00;;;26.81;32.17
16793;BME280;8513;42.662;23.350;2022-08-05T09:43:52;94951.91;;;26.98;32.29
16793;BME280;8513;42.662;23.350;2022-08-05T09:46:31;94952.28;;;27.12;32.59
16793;BME280;8513;42.662;23.350;2022-08-05T09:48:58;94947.97;;;27.11;32.04
16793;BME280;8513;42.662;23.350;2022-08-05T09:51:35;94941.69;;;27.33;31.05
16793;BME280;8513;42.662;23.350;2022-08-05T09:54:03;94945.56;;;27.47;29.95
16793;BME280;8513;42.662;23.350;2022-08-05T09:56:33;94940.16;;;27.47;31.51
16793;BME280;8513;42.662;23.350;2022-08-05T09:59:02;94945.06;;;27.55;31.43
16793;BME280;8513;42.662;23.350;2022-08-05T10:01:28;94938.41;;;27.68;30.71
16793;BME280;8513;42.662;23.350;2022-08-05T10:04:03;94936.84;;;27.77;30.94
16793;BME280;8513;42.662;23.350;2022-08-05T10:06:29;94929.09;;;27.86;30.12
16793;BME280;8513;42.662;23.350;2022-08-05T10:09:09;94926.41;;;27.86;33.60
16793;BME280;8513;42.662;23.350;2022-08-05T10:11:35;94927.47;;;27.90;31.15
16793;BME280;8513;42.662;23.350;2022-08-05T10:14:19;94921.34;;;28.05;31.01
16793;BME280;8513;42.662;23.350;2022-08-05T10:16:46;94923.78;;;28.06;30.64
16793;BME280;8513;42.662;23.350;2022-08-05T10:19:11;94920.28;;;28.11;29.33
16793;BME280;8513;42.662;23.350;2022-08-05T10:21:38;94917.09;;;28.24;29.10
16793;BME280;8513;42.662;23.350;2022-08-05T10:24:04;94920.09;;;28.38;29.15
16793;BME280;8513;42.662;23.350;2022-08-05T10:26:31;94923.16;;;28.62;29.43
16793;BME280;8513;42.662;23.350;2022-08-05T10:28:56;94923.72;;;28.64;30.73
16793;BME280;8513;42.662;23.350;2022-08-05T10:31:22;94919.16;;;28.75;29.98
16793;BME280;8513;42.662;23.350;2022-08-05T10:33:48;94924.56;;;28.85;29.92
16793;BME280;8513;42.662;23.350;2022-08-05T10:36:14;94917.28;;;29.01;28.62
16793;BME280;8513;42.662;23.350;2022-08-05T10:38:43;94918.63;;;28.98;27.65
16793;BME280;8513;42.662;23.350;2022-08-05T10:43:50;94913.75;;;28.95;29.80
16793;BME280;8513;42.662;23.350;2022-08-05T10:46:19;94908.91;;;29.18;29.22
16793;BME280;8513;42.662;23.350;2022-08-05T10:48:49;94911.63;;;29.28;29.87
16793;BME280;8513;42.662;23.350;2022-08-05T10:51:20;94908.38;;;29.41;30.44
16793;BME280;8513;42.662;23.350;2022-08-05T10:53:55;94905.34;;;29.53;27.96
16793;BME280;8513;42.662;23.350;2022-08-05T10:56:43;94909.72;;;29.64;29.25
16793;BME280;8513;42.662;23.350;2022-08-05T10:59:08;94894.50;;;29.79;28.76
16793;BME280;8513;42.662;23.350;2022-08-05T11:01:41;94894.75;;;29.87;28.49
16793;BME280;8513;42.662;23.350;2022-08-05T11:04:13;94887.13;;;30.00;28.33
16793;BME280;8513;42.662;23.350;2022-08-05T11:09:27;94892.16;;;30.22;27.08
16793;BME280;8513;42.662;23.350;2022-08-05T11:11:53;94889.97;;;30.34;26.02
16793;BME280;8513;42.662;23.350;2022-08-05T11:14:30;94880.44;;;30.37;27.23
16793;BME280;8513;42.662;23.350;2022-08-05T11:19:54;94867.84;;;30.61;26.78
16793;BME280;8513;42.662;23.350;2022-08-05T11:22:40;94876.97;;;30.81;25.43
16793;BME280;8513;42.662;23.350;2022-08-05T11:33:51;94871.63;;;31.05;24.32
16793;BME280;8513;42.662;23.350;2022-08-05T11:36:49;94864.81;;;31.07;24.50
16793;BME280;8513;42.662;23.350;2022-08-05T11:39:48;94859.03;;;31.14;25.65
16793;BME280;8513;42.662;23.350;2022-08-05T11:42:15;94866.63;;;31.46;24.84
16793;BME280;8513;42.662;23.350;2022-08-05T11:44:42;94853.59;;;31.72;23.21
16793;BME280;8513;42.662;23.350;2022-08-05T11:47:08;94856.25;;;31.77;23.45
16793;BME280;8513;42.662;23.350;2022-08-05T11:49:34;94860.16;;;31.95;24.38
16793;BME280;8513;42.662;23.350;2022-08-05T11:51:59;94861.88;;;32.10;23.42
16793;BME280;8513;42.662;23.350;2022-08-05T11:54:28;94855.69;;;32.04;23.62
16793;BME280;8513;42.662;23.350;2022-08-05T11:56:55;94854.31;;;32.26;24.28
16793;BME280;8513;42.662;23.350;2022-08-05T11:59:26;94860.91;;;32.63;23.31
16793;BME280;8513;42.662;23.350;2022-08-05T12:01:59;94854.16;;;32.17;22.92
16793;BME280;8513;42.662;23.350;2022-08-05T12:04:37;94844.63;;;32.20;24.17
16793;BME280;8513;42.662;23.350;2022-08-05T12:07:05;94854.22;;;32.55;23.66
16793;BME280;8513;42.662;23.350;2022-08-05T12:09:39;94845.31;;;32.49;22.66
16793;BME280;8513;42.662;23.350;2022-08-05T12:12:06;94844.28;;;32.26;22.88
16793;BME280;8513;42.662;23.350;2022-08-05T12:14:39;94841.19;;;32.33;22.77
16793;BME280;8513;42.662;23.350;2022-08-05T12:17:10;94838.91;;;32.40;22.37
16793;BME280;8513;42.662;23.350;2022-08-05T12:22:07;94838.53;;;32.85;22.71
16793;BME280;8513;42.662;23.350;2022-08-05T12:24:33;94840.34;;;33.08;22.28
16793;BME280;8513;42.662;23.350;2022-08-05T12:27:00;94834.06;;;33.41;21.91
16793;BME280;8513;42.662;23.350;2022-08-05T12:29:26;94839.09;;;33.66;21.66
16793;BME280;8513;42.662;23.350;2022-08-05T12:31:57;94835.81;;;33.50;21.46
16793;BME280;8513;42.662;23.350;2022-08-05T12:34:26;94836.56;;;33.23;20.92
16793;BME280;8513;42.662;23.350;2022-08-05T12:36:59;94834.25;;;33.63;22.18
16793;BME280;8513;42.662;23.350;2022-08-05T12:39:25;94823.09;;;33.73;21.33
16793;BME280;8513;42.662;23.350;2022-08-05T12:41:57;94826.97;;;33.72;21.82
16793;BME280;8513;42.662;23.350;2022-08-05T12:44:23;94828.22;;;33.33;22.75
16793;BME280;8513;42.662;23.350;2022-08-05T12:46:53;94812.97;;;33.46;22.77
16793;BME280;8513;42.662;23.350;2022-08-05T12:49:19;94817.25;;;33.80;23.75
16793;BME280;8513;42.662;23.350;2022-08-05T12:51:55;94817.47;;;34.11;20.76
16793;BME280;8513;42.662;23.350;2022-08-05T12:54:26;94812.16;;;34.79;20.32
16793;BME280;8513;42.662;23.350;2022-08-05T12:56:54;94811.16;;;35.20;20.44
16793;BME280;8513;42.662;23.350;2022-08-05T12:59:21;94808.00;;;34.81;20.13
16793;BME280;8513;42.662;23.350;2022-08-05T13:01:54;94810.19;;;34.20;20.66
16793;BME280;8513;42.662;23.350;2022-08-05T13:04:21;94809.34;;;33.51;21.25
16793;BME280;8513;42.662;23.350;2022-08-05T13:06:47;94802.34;;;32.98;22.28
16793;BME280;8513;42.662;23.350;2022-08-05T13:09:13;94803.63;;;33.06;22.47
16793;BME280;8513;42.662;23.350;2022-08-05T13:11:41;94804.50;;;33.48;22.40
16793;BME280;8513;42.662;23.350;2022-08-05T13:14:18;94797.69;;;33.64;21.86
16793;BME280;8513;42.662;23.350;2022-08-05T13:16:55;94793.72;;;33.56;21.72
16793;BME280;8513;42.662;23.350;2022-08-05T13:19:25;94797.47;;;33.60;21.61
16793;BME280;8513;42.662;23.350;2022-08-05T13:21:52;94793.34;;;33.63;21.62
16793;BME280;8513;42.662;23.350;2022-08-05T13:24:20;94785.09;;;33.49;21.27
16793;BME280;8513;42.662;23.350;2022-08-05T13:26:47;94798.44;;;33.23;21.60
16793;BME280;8513;42.662;23.350;2022-08-05T13:29:14;94797.19;;;32.83;21.57
16793;BME280;8513;42.662;23.350;2022-08-05T13:31:43;94798.44;;;32.15;22.07
16793;BME280;8513;42.662;23.350;2022-08-05T13:34:09;94796.47;;;32.58;22.21
16793;BME280;8513;42.662;23.350;2022-08-05T13:36:35;94798.19;;;32.87;21.82
16793;BME280;8513;42.662;23.350;2022-08-05T13:39:02;94793.34;;;33.03;21.89